createdAt,value
2022-08-01T00:04:27.061Z,27.55
2022-08-01T00:09:30.714Z,27.43
2022-08-01T00:14:36.645Z,27.26
2022-08-01T00:19:40.263Z,27.08
2022-08-01T00:24:43.933Z,26.75
2022-08-01T00:30:11.180Z,26.51
2022-08-01T00:35:13.115Z,26.45
2022-08-01T00:40:16.734Z,26.43
2022-08-01T00:45:22.013Z,26.25
2022-08-01T00:50:26.153Z,26.25
2022-08-01T00:55:30.960Z,26.16
2022-08-01T01:00:53.061Z,26.20
2022-08-01T01:06:10.140Z,26.02
2022-08-01T01:11:23.459Z,25.95
2022-08-01T01:16:32.509Z,25.80
2022-08-01T01:21:58.270Z,25.77
2022-08-01T01:27:12.366Z,25.57
2022-08-01T01:32:21.605Z,25.51
2022-08-01T01:37:36.302Z,25.40
2022-08-01T01:42:41.526Z,25.21
2022-08-01T01:47:48.367Z,25.13
2022-08-01T01:52:52.875Z,25.08
2022-08-01T01:57:58.478Z,25.14
2022-08-01T02:03:06.089Z,25.07
2022-08-01T02:08:11.290Z,25.04
2022-08-01T02:13:16.121Z,25.09
2022-08-01T02:18:23.947Z,25.01
2022-08-01T02:23:33.258Z,24.78
2022-08-01T02:28:45.167Z,24.71
2022-08-01T02:33:57.843Z,24.58
2022-08-01T02:39:05.531Z,24.44
2022-08-01T02:44:11.331Z,24.26
2022-08-01T02:49:18.344Z,24.02
2022-08-01T02:54:24.999Z,23.96
2022-08-01T02:59:31.327Z,23.81
2022-08-01T03:04:39.759Z,23.76
2022-08-01T03:09:46.932Z,23.66
2022-08-01T03:14:53.478Z,23.53
2022-08-01T03:20:00.826Z,23.34
2022-08-01T03:25:06.158Z,23.24
2022-08-01T03:30:10.819Z,23.09
2022-08-01T03:35:16.115Z,22.94
2022-08-01T03:40:25.306Z,22.70
2022-08-01T03:45:33.530Z,22.56
2022-08-01T03:50:41.280Z,22.44
2022-08-01T03:55:45.837Z,22.27
2022-08-01T04:00:50.378Z,22.06
2022-08-01T04:05:56.857Z,21.91
2022-08-01T04:11:00.557Z,21.79
2022-08-01T04:16:04.229Z,21.57
2022-08-01T04:21:10.016Z,21.45
2022-08-01T04:26:16.758Z,21.30
2022-08-01T04:31:20.769Z,21.22
2022-08-01T04:36:27.558Z,21.08
2022-08-01T04:41:33.349Z,20.92
2022-08-01T04:46:38.924Z,21.00
2022-08-01T04:51:54.346Z,21.00
2022-08-01T04:56:57.507Z,20.93
2022-08-01T05:02:01.126Z,20.97
2022-08-01T05:07:06.400Z,20.93
2022-08-01T05:12:09.965Z,20.87
2022-08-01T05:17:13.541Z,20.66
2022-08-01T05:22:20.959Z,20.72
2022-08-01T05:27:23.790Z,20.68
2022-08-01T05:32:30.513Z,20.43
2022-08-01T05:37:35.801Z,20.43
2022-08-01T05:42:38.622Z,20.51
2022-08-01T05:47:43.016Z,20.43
2022-08-01T05:52:48.443Z,20.32
2022-08-01T05:57:52.166Z,20.32
2022-08-01T06:02:55.733Z,20.14
2022-08-01T06:08:00.984Z,20.12
2022-08-01T06:13:04.629Z,20.13
2022-08-01T06:18:08.360Z,20.15
2022-08-01T06:23:31.606Z,19.98
2022-08-01T06:28:36.613Z,19.89
2022-08-01T06:33:40.282Z,19.82
2022-08-01T06:38:45.518Z,19.84
2022-08-01T06:43:49.109Z,19.94
2022-08-01T06:48:52.738Z,19.76
2022-08-01T06:53:58.033Z,19.75
2022-08-01T06:59:01.617Z,19.70
2022-08-01T07:04:05.546Z,19.56
2022-08-01T07:09:14.115Z,19.43
2022-08-01T07:14:18.478Z,19.46
2022-08-01T07:19:22.071Z,19.47
2022-08-01T07:24:28.830Z,19.41
2022-08-01T07:29:32.461Z,19.37
2022-08-01T07:34:36.122Z,19.33
2022-08-01T07:39:41.401Z,19.29
2022-08-01T07:44:44.985Z,19.28
2022-08-01T07:49:48.617Z,19.04
2022-08-01T07:54:53.840Z,19.01
2022-08-01T07:59:57.828Z,18.91
2022-08-01T08:05:01.392Z,18.90
2022-08-01T08:10:07.759Z,18.98
2022-08-01T08:15:12.093Z,19.03
2022-08-01T08:20:15.711Z,18.85
2022-08-01T08:25:22.084Z,18.83
2022-08-01T08:30:30.245Z,18.78
2022-08-01T08:35:40.476Z,18.66
2022-08-01T08:40:59.980Z,18.68
2022-08-01T08:46:04.060Z,18.58
2022-08-01T08:51:09.246Z,18.56
2022-08-01T08:56:15.757Z,18.60
2022-08-01T09:01:19.756Z,18.62
2022-08-01T09:06:27.648Z,18.63
2022-08-01T09:11:33.138Z,18.67
2022-08-01T09:16:43.239Z,18.54
2022-08-01T09:21:59.495Z,18.33
2022-08-01T09:27:18.241Z,18.33
2022-08-01T09:32:26.017Z,18.34
2022-08-01T09:37:37.507Z,18.32
2022-08-01T09:42:42.933Z,18.39
2022-08-01T09:47:46.585Z,18.45
2022-08-01T09:52:56.127Z,18.48
2022-08-01T09:58:02.647Z,18.60
2022-08-01T10:03:22.916Z,18.66
2022-08-01T10:08:28.397Z,18.69
2022-08-01T10:13:36.526Z,18.62
2022-08-01T10:18:43.487Z,18.47
2022-08-01T10:23:47.910Z,18.48
2022-08-01T10:28:56.449Z,18.49
2022-08-01T10:34:00.766Z,18.37
2022-08-01T10:39:04.462Z,18.27
2022-08-01T10:44:10.975Z,18.17
2022-08-01T10:49:17.290Z,18.28
2022-08-01T10:54:20.923Z,18.24
2022-08-01T10:59:49.929Z,18.21
2022-08-01T11:04:59.937Z,18.11
2022-08-01T11:10:15.159Z,17.92
2022-08-01T11:15:29.139Z,17.98
2022-08-01T11:20:41.576Z,18.00
2022-08-01T11:26:11.067Z,17.96
2022-08-01T11:31:37.417Z,18.02
2022-08-01T11:36:59.054Z,18.11
2022-08-01T11:42:21.066Z,17.99
2022-08-01T11:47:47.316Z,17.96
2022-08-01T11:53:00.045Z,17.90
2022-08-01T11:58:04.898Z,17.93
2022-08-01T12:03:13.136Z,17.95
2022-08-01T12:08:27.698Z,17.99
2022-08-01T12:13:41.933Z,17.93
2022-08-01T12:18:47.183Z,17.72
2022-08-01T12:24:02.821Z,17.78
2022-08-01T12:29:06.404Z,18.19
2022-08-01T12:34:30.232Z,18.56
2022-08-01T12:39:35.100Z,18.55
2022-08-01T12:44:39.403Z,18.31
2022-08-01T12:49:45.618Z,18.15
2022-08-01T12:55:13.082Z,18.18
2022-08-01T13:00:20.231Z,17.97
2022-08-01T13:05:26.882Z,17.99
2022-08-01T13:10:32.314Z,18.17
2022-08-01T13:15:41.879Z,18.09
2022-08-01T13:20:50.520Z,17.86
2022-08-01T13:25:57.685Z,18.03
2022-08-01T13:31:02.753Z,18.23
2022-08-01T13:36:08.479Z,18.30
2022-08-01T13:41:12.084Z,18.21
2022-08-01T13:46:15.746Z,18.03
2022-08-01T13:51:23.998Z,18.12
2022-08-01T13:56:27.775Z,18.30
2022-08-01T14:01:34.417Z,18.39
2022-08-01T14:06:40.080Z,18.34
2022-08-01T14:11:46.165Z,18.43
2022-08-01T14:16:49.800Z,18.53
2022-08-01T14:21:56.134Z,18.41
2022-08-01T14:26:59.732Z,18.53
2022-08-01T14:32:03.436Z,18.62
2022-08-01T14:37:08.878Z,18.59
2022-08-01T14:42:12.470Z,18.50
2022-08-01T14:47:21.811Z,18.39
2022-08-01T14:52:27.663Z,18.58
2022-08-01T14:57:32.350Z,18.57
2022-08-01T15:02:35.931Z,18.55
2022-08-01T15:07:51.568Z,18.19
2022-08-01T15:12:57.311Z,18.02
2022-08-01T15:18:00.914Z,18.03
2022-08-01T15:23:06.151Z,18.11
2022-08-01T15:28:10.510Z,18.16
2022-08-01T15:33:14.183Z,18.27
2022-08-01T15:38:19.429Z,18.39
2022-08-01T15:43:23.027Z,18.56
2022-08-01T15:48:26.756Z,18.64
2022-08-01T15:53:31.997Z,18.74
2022-08-01T15:58:35.576Z,18.81
2022-08-01T16:03:39.865Z,18.85
2022-08-01T16:08:44.947Z,18.89
2022-08-01T16:13:48.524Z,18.85
2022-08-01T16:18:54.363Z,18.74
2022-08-01T16:24:00.304Z,18.76
2022-08-01T16:29:04.046Z,18.63
2022-08-01T16:34:07.640Z,18.56
2022-08-01T16:39:17.317Z,18.55
2022-08-01T16:44:28.588Z,18.47
2022-08-01T16:49:38.195Z,18.59
2022-08-01T16:54:43.470Z,18.74
2022-08-01T16:59:47.070Z,18.65
2022-08-01T17:04:50.650Z,18.79
2022-08-01T17:09:55.934Z,18.68
2022-08-01T17:14:59.644Z,18.69
2022-08-01T17:20:03.254Z,18.70
2022-08-01T17:25:16.051Z,18.76
2022-08-01T17:30:19.866Z,18.85
2022-08-01T17:35:23.713Z,18.75
2022-08-01T17:40:40.056Z,18.77
2022-08-01T17:45:50.426Z,18.72
2022-08-01T17:50:55.768Z,18.75
2022-08-01T17:56:01.027Z,18.91
2022-08-01T18:01:04.829Z,19.02
2022-08-01T18:06:09.253Z,19.15
2022-08-01T18:11:16.060Z,19.17
2022-08-01T18:16:19.788Z,19.28
2022-08-01T18:21:23.388Z,19.29
2022-08-01T18:26:28.910Z,19.32
2022-08-01T18:31:31.751Z,19.28
2022-08-01T18:36:35.373Z,19.28
2022-08-01T18:41:46.317Z,19.25
2022-08-01T18:46:49.988Z,19.29
2022-08-01T18:51:53.654Z,19.36
2022-08-01T18:56:58.878Z,19.45
2022-08-01T19:02:02.475Z,19.43
2022-08-01T19:07:06.346Z,19.56
2022-08-01T19:12:12.027Z,19.65
2022-08-01T19:17:14.879Z,19.76
2022-08-01T19:22:18.463Z,19.84
2022-08-01T19:27:26.845Z,19.78
2022-08-01T19:32:34.366Z,19.94
2022-08-01T19:37:38.092Z,20.09
2022-08-01T19:42:44.172Z,20.51
2022-08-01T19:47:51.994Z,20.70
2022-08-01T19:53:04.038Z,20.76
2022-08-01T19:58:26.477Z,20.59
2022-08-01T20:03:31.516Z,20.61
2022-08-01T20:08:36.013Z,20.62
2022-08-01T20:13:41.828Z,20.74
2022-08-01T20:18:45.503Z,20.90
2022-08-01T20:23:51.858Z,21.16
2022-08-01T20:28:58.150Z,21.39
2022-08-01T20:34:02.214Z,21.41
2022-08-01T20:39:05.863Z,21.28
2022-08-01T20:44:15.103Z,21.40
2022-08-01T20:49:21.769Z,21.75
2022-08-01T20:54:25.985Z,22.01
2022-08-01T20:59:55.400Z,22.61
2022-08-01T21:05:05.737Z,23.28
2022-08-01T21:10:10.635Z,23.64
2022-08-01T21:15:22.252Z,23.96
2022-08-01T21:20:31.687Z,24.15
2022-08-01T21:25:36.380Z,24.30
2022-08-01T21:30:42.731Z,24.25
2022-08-01T21:36:05.799Z,24.19
2022-08-01T21:41:10.105Z,24.14
2022-08-01T21:46:18.208Z,24.10
2022-08-01T21:51:38.296Z,24.05
2022-08-01T21:56:49.759Z,24.19
2022-08-01T22:02:02.926Z,24.07
2022-08-01T22:07:09.453Z,24.25
2022-08-01T22:12:17.863Z,24.43
2022-08-01T22:17:25.192Z,24.44
2022-08-01T22:22:51.706Z,24.25
2022-08-01T22:28:09.386Z,24.34
2022-08-01T22:33:17.469Z,24.36
2022-08-01T22:38:22.895Z,24.37
2022-08-01T22:43:31.324Z,24.34
2022-08-01T22:48:45.055Z,24.41
2022-08-01T22:53:54.143Z,24.69
2022-08-01T22:59:02.510Z,25.11
2022-08-01T23:04:12.802Z,25.56
2022-08-01T23:09:18.432Z,25.79
2022-08-01T23:14:23.586Z,25.97
2022-08-01T23:19:31.576Z,25.79
2022-08-01T23:24:36.474Z,25.82
2022-08-01T23:29:40.326Z,25.79
2022-08-01T23:34:46.072Z,25.68
2022-08-01T23:39:50.113Z,25.59
2022-08-01T23:44:53.713Z,25.43
2022-08-01T23:49:59.346Z,25.42
2022-08-01T23:55:03.393Z,25.49
